Time;durP1;ratioP1;P1;durP2;ratioP2;P2;SDS_P1;SDS_P2;PMS_P1;PMS_P2;Temp;Humidity;BMP_temperature;BMP_pressure;BME280_temperature;BME280_humidity;BME280_pressure;Samples;Min_cycle;Max_cycle;Signal;HPM_P1;HPM_P2
2022/04/30 00:00:35;;;;;;;1.13;1.03;;;8.80;99.90;;;;;;5028048;28;20722;-90
2022/04/30 00:03:01;;;;;;;1.60;1.50;;;8.80;99.90;;;;;;5045009;28;20657;-90
2022/04/30 00:05:32;;;;;;;1.93;1.60;;;8.80;99.90;;;;;;5028113;28;20197;-89
2022/04/30 00:07:59;;;;;;;2.40;2.03;;;8.80;99.90;;;;;;5026932;28;20222;-87
2022/04/30 00:10:25;;;;;;;2.13;1.80;;;8.80;99.90;;;;;;5044714;28;20242;-89
2022/04/30 00:12:50;;;;;;;2.97;1.53;;;8.80;99.90;;;;;;5027137;28;20245;-91
2022/04/30 00:15:16;;;;;;;6.87;1.93;;;8.90;99.90;;;;;;5043486;28;20831;-90
2022/04/30 00:17:42;;;;;;;1.77;1.60;;;8.90;99.90;;;;;;5032241;28;20182;-90
2022/04/30 00:20:08;;;;;;;3.23;2.30;;;8.90;99.90;;;;;;5025689;28;20241;-87
2022/04/30 00:22:34;;;;;;;3.47;1.80;;;8.90;99.90;;;;;;5026711;28;20664;-89
2022/04/30 00:25:01;;;;;;;6.43;1.47;;;8.90;99.90;;;;;;5026702;28;20228;-90
2022/04/30 00:27:28;;;;;;;2.53;1.90;;;8.90;99.90;;;;;;5044754;28;20305;-87
2022/04/30 00:29:54;;;;;;;3.07;2.23;;;8.90;99.90;;;;;;5027173;28;20201;-89
2022/04/30 00:32:21;;;;;;;1.23;1.07;;;8.90;99.90;;;;;;5043384;28;20646;-90
2022/04/30 00:34:48;;;;;;;1.43;1.23;;;8.90;99.90;;;;;;5043331;28;20678;-89
2022/04/30 00:37:13;;;;;;;2.30;1.17;;;8.90;99.90;;;;;;5043829;28;20220;-90
2022/04/30 00:39:39;;;;;;;0.70;0.70;;;8.90;99.90;;;;;;5043224;28;20230;-89
2022/04/30 00:42:09;;;;;;;1.30;1.03;;;8.90;99.90;;;;;;5044768;28;20198;-87
2022/04/30 00:44:35;;;;;;;1.40;1.30;;;8.90;99.90;;;;;;5027883;28;20182;-89
2022/04/30 00:47:01;;;;;;;0.83;0.83;;;8.90;99.90;;;;;;5043288;28;20279;-89
2022/04/30 00:49:27;;;;;;;0.87;0.87;;;8.90;99.90;;;;;;5026250;28;20268;-88
2022/04/30 00:51:54;;;;;;;1.63;1.53;;;8.90;99.90;;;;;;5043846;28;20217;-90
2022/04/30 00:54:20;;;;;;;1.93;1.50;;;8.90;99.90;;;;;;5043426;28;20205;-89
2022/04/30 00:56:58;;;;;;;2.03;1.83;;;8.90;99.90;;;;;;5044695;28;20190;-86
2022/04/30 00:59:25;;;;;;;1.00;1.00;;;8.90;99.90;;;;;;5044197;28;20252;-89
2022/04/30 01:01:51;;;;;;;2.60;1.73;;;9.00;99.90;;;;;;5043226;28;20288;-91
2022/04/30 01:04:18;;;;;;;1.13;1.13;;;8.90;99.90;;;;;;5042294;28;20308;-88
2022/04/30 01:06:49;;;;;;;1.47;1.33;;;8.90;99.90;;;;;;5043337;28;20477;-90
2022/04/30 01:09:17;;;;;;;1.40;1.23;;;8.90;99.90;;;;;;5042812;28;20232;-90
2022/04/30 01:11:47;;;;;;;1.10;1.10;;;8.90;99.90;;;;;;5044732;28;20193;-87
2022/04/30 01:14:13;;;;;;;4.27;1.67;;;8.90;99.90;;;;;;5025723;28;20694;-88
2022/04/30 01:16:40;;;;;;;1.70;1.60;;;9.00;99.90;;;;;;5043319;28;20252;-89
2022/04/30 01:19:07;;;;;;;1.50;1.40;;;8.90;99.90;;;;;;5025611;28;20230;-88
2022/04/30 01:21:35;;;;;;;1.80;1.37;;;8.90;99.90;;;;;;5042508;28;20269;-87
2022/04/30 01:24:02;;;;;;;1.53;1.43;;;8.90;99.90;;;;;;5042660;28;20191;-90
2022/04/30 01:26:28;;;;;;;4.83;1.13;;;8.90;99.90;;;;;;5035967;28;20248;-89
2022/04/30 01:28:54;;;;;;;0.93;0.93;;;8.90;99.90;;;;;;5042656;28;20233;-89
2022/04/30 01:39:32;;;;;;;2.50;1.23;;;9.00;99.90;;;;;;5042438;28;20265;-89
2022/04/30 01:42:11;;;;;;;1.53;1.23;;;9.00;99.90;;;;;;5042152;28;20232;-88
2022/04/30 01:44:38;;;;;;;1.90;1.77;;;9.00;99.90;;;;;;5043563;28;20186;-89
2022/04/30 01:47:05;;;;;;;3.53;1.60;;;8.90;99.90;;;;;;5042586;28;20730;-89
2022/04/30 01:49:30;;;;;;;4.43;1.90;;;8.90;99.90;;;;;;5042798;28;20236;-89
2022/04/30 01:51:56;;;;;;;1.70;1.60;;;9.00;99.90;;;;;;5042524;28;20563;-89
2022/04/30 01:54:22;;;;;;;1.80;1.70;;;9.00;99.90;;;;;;5042828;28;20221;-88
2022/04/30 01:56:47;;;;;;;1.67;1.57;;;9.00;99.90;;;;;;5042871;28;20627;-89
2022/04/30 01:59:13;;;;;;;4.97;1.50;;;9.00;99.90;;;;;;5026085;28;20221;-89
2022/04/30 02:01:43;;;;;;;1.50;1.33;;;9.00;99.90;;;;;;5029123;28;20217;-89
2022/04/30 02:04:11;;;;;;;2.33;2.13;;;8.90;99.90;;;;;;5062745;28;20237;-88
2022/04/30 02:06:37;;;;;;;2.10;1.93;;;8.90;99.90;;;;;;5047622;28;20339;-90
2022/04/30 02:09:03;;;;;;;5.67;1.80;;;8.90;99.90;;;;;;5030255;28;20204;-89
2022/04/30 02:11:29;;;;;;;3.23;2.93;;;8.90;99.90;;;;;;5046614;28;20186;-89
2022/04/30 02:13:58;;;;;;;3.13;2.00;;;9.00;99.90;;;;;;5046598;28;20489;-89
2022/04/30 02:16:25;;;;;;;2.37;1.93;;;9.00;99.90;;;;;;5046003;28;20241;-89
2022/04/30 02:18:51;;;;;;;2.43;1.77;;;9.10;99.90;;;;;;5047655;28;20222;-88
2022/04/30 02:21:20;;;;;;;1.97;1.87;;;9.10;99.90;;;;;;5046888;28;20650;-88
2022/04/30 02:23:48;;;;;;;2.80;2.27;;;9.10;99.90;;;;;;5046683;28;20182;-87
2022/04/30 02:26:15;;;;;;;4.70;2.03;;;9.10;99.90;;;;;;5046200;28;20218;-87
2022/04/30 02:28:41;;;;;;;1.43;1.33;;;9.10;99.90;;;;;;5046992;28;20241;-88
2022/04/30 02:31:07;;;;;;;1.83;1.73;;;9.20;99.90;;;;;;5045382;28;20221;-89
2022/04/30 02:33:32;;;;;;;1.93;1.70;;;9.20;99.90;;;;;;5046689;28;20287;-90
2022/04/30 02:35:58;;;;;;;6.30;1.80;;;9.20;99.90;;;;;;5046350;28;20209;-89
2022/04/30 02:38:26;;;;;;;3.13;1.40;;;9.20;99.90;;;;;;5045602;28;20662;-89
2022/04/30 02:40:52;;;;;;;3.17;1.70;;;9.20;99.90;;;;;;5045877;28;20240;-85
2022/04/30 02:43:19;;;;;;;2.77;2.17;;;9.20;99.90;;;;;;5029035;28;20621;-90
2022/04/30 02:45:47;;;;;;;3.57;2.30;;;9.20;99.90;;;;;;5045627;28;20219;-89
2022/04/30 02:48:15;;;;;;;2.90;1.63;;;9.20;99.90;;;;;;5045036;28;20217;-89
2022/04/30 02:50:40;;;;;;;6.07;2.63;;;9.20;99.90;;;;;;5030269;28;20252;-87
2022/04/30 02:53:06;;;;;;;2.20;1.87;;;9.20;99.90;;;;;;5028905;28;20599;-90
2022/04/30 02:55:33;;;;;;;8.53;2.30;;;9.20;99.90;;;;;;5028380;28;20585;-87
2022/04/30 03:00:45;;;;;;;3.27;2.83;;;9.10;99.90;;;;;;5047089;28;20253;-88
2022/04/30 03:03:13;;;;;;;2.50;2.30;;;9.10;99.90;;;;;;5046262;28;20214;-89
2022/04/30 03:05:43;;;;;;;2.00;1.80;;;9.10;99.90;;;;;;5046795;28;21105;-88
2022/04/30 03:08:20;;;;;;;2.73;2.53;;;9.10;99.90;;;;;;5044265;28;20235;-89
2022/04/30 03:10:48;;;;;;;4.63;3.00;;;9.10;99.90;;;;;;5044529;28;20201;-90
2022/04/30 03:13:14;;;;;;;3.07;2.20;;;9.20;99.90;;;;;;5046543;28;20229;-90
2022/04/30 03:15:45;;;;;;;3.60;2.83;;;9.20;99.90;;;;;;5029229;28;20209;-89
2022/04/30 03:23:41;;;;;;;9.13;2.07;;;9.20;99.90;;;;;;5046526;28;20507;-89
2022/04/30 03:26:08;;;;;;;5.87;3.20;;;9.20;99.90;;;;;;5045041;28;20332;-87
2022/04/30 03:28:38;;;;;;;2.93;2.70;;;9.20;99.90;;;;;;5046014;28;20303;-88
2022/04/30 03:31:05;;;;;;;4.17;3.00;;;9.20;99.90;;;;;;5046334;28;20233;-88
2022/04/30 03:33:32;;;;;;;3.90;3.00;;;9.20;99.90;;;;;;5044197;28;20243;-89
2022/04/30 03:35:58;;;;;;;4.43;2.40;;;9.20;99.90;;;;;;5029288;28;20213;-89
2022/04/30 03:38:24;;;;;;;4.67;2.63;;;9.20;99.90;;;;;;5046054;28;20210;-90
2022/04/30 03:40:49;;;;;;;4.40;2.07;;;9.20;99.90;;;;;;5046605;28;20204;-90
2022/04/30 03:43:16;;;;;;;2.37;2.07;;;9.20;99.90;;;;;;5045123;28;20308;-87
2022/04/30 03:45:42;;;;;;;3.90;2.53;;;9.30;99.90;;;;;;5045149;28;20697;-89
2022/04/30 03:48:08;;;;;;;2.33;2.00;;;9.30;99.90;;;;;;5045022;28;20178;-87
2022/04/30 03:50:34;;;;;;;2.17;1.97;;;9.30;99.90;;;;;;5045549;28;20209;-89
2022/04/30 03:53:00;;;;;;;2.13;1.93;;;9.30;99.90;;;;;;5044671;28;20225;-89
2022/04/30 03:55:27;;;;;;;3.03;2.63;;;9.40;99.90;;;;;;5044427;28;20226;-89
2022/04/30 03:57:53;;;;;;;6.63;3.43;;;9.40;99.90;;;;;;5045602;28;20480;-87
2022/04/30 04:00:20;;;;;;;3.27;2.97;;;9.20;99.90;;;;;;5045104;28;20263;-89
2022/04/30 04:02:45;;;;;;;2.93;2.03;;;9.20;99.90;;;;;;5012171;28;20208;-89
2022/04/30 04:05:12;;;;;;;2.47;2.27;;;9.00;99.90;;;;;;5028323;28;20210;-88
2022/04/30 04:07:39;;;;;;;3.00;2.33;;;8.90;99.90;;;;;;5012276;28;20624;-89
2022/04/30 04:10:05;;;;;;;7.20;2.10;;;8.90;99.90;;;;;;5044610;28;20233;-88
2022/04/30 04:12:31;;;;;;;5.67;3.23;;;8.90;99.90;;;;;;5028089;28;20213;-88
2022/04/30 04:17:41;;;;;;;2.87;2.47;;;9.00;99.90;;;;;;5046206;28;20178;-89
2022/04/30 04:20:13;;;;;;;4.07;2.27;;;9.00;99.90;;;;;;5027413;28;20686;-89
2022/04/30 04:22:39;;;;;;;5.73;2.50;;;8.90;99.90;;;;;;5044733;28;20230;-87
2022/04/30 04:27:55;;;;;;;3.90;2.87;;;9.00;99.90;;;;;;5044350;28;20225;-89
2022/04/30 04:30:22;;;;;;;2.33;2.13;;;9.00;99.90;;;;;;5043435;28;20222;-89
2022/04/30 04:32:48;;;;;;;5.40;3.33;;;9.00;99.90;;;;;;5028856;28;20197;-87
2022/04/30 04:35:14;;;;;;;2.93;2.57;;;9.00;99.90;;;;;;5042284;28;20382;-88
2022/04/30 04:37:41;;;;;;;3.30;2.27;;;9.00;99.90;;;;;;5043023;28;20222;-89
2022/04/30 04:40:09;;;;;;;4.87;3.17;;;9.10;99.90;;;;;;5025058;28;20252;-89
2022/04/30 04:42:36;;;;;;;4.37;3.97;;;9.10;99.90;;;;;;5044665;28;20229;-88
2022/04/30 04:45:03;;;;;;;6.67;3.23;;;9.10;99.90;;;;;;5044963;28;20186;-89
2022/04/30 04:47:29;;;;;;;4.10;3.30;;;9.10;99.90;;;;;;5044391;28;20217;-89
2022/04/30 04:49:55;;;;;;;4.00;3.57;;;9.10;99.90;;;;;;5026782;28;20217;-88
2022/04/30 04:52:22;;;;;;;3.73;2.73;;;9.10;99.90;;;;;;5044160;28;20233;-89
2022/04/30 04:54:47;;;;;;;3.70;2.53;;;9.00;99.90;;;;;;5043380;28;20206;-87
2022/04/30 04:57:14;;;;;;;4.67;2.20;;;9.00;99.90;;;;;;5044830;28;20562;-86
2022/04/30 04:59:40;;;;;;;6.90;3.33;;;9.00;99.90;;;;;;5043851;28;20216;-90
2022/04/30 05:02:06;;;;;;;3.07;2.77;;;9.00;99.90;;;;;;5043041;28;20316;-89
2022/04/30 05:04:33;;;;;;;9.03;3.77;;;9.00;99.90;;;;;;5041724;28;21255;-88
2022/04/30 05:07:00;;;;;;;5.10;4.00;;;9.10;99.90;;;;;;5026370;28;20248;-90
2022/04/30 05:09:26;;;;;;;6.23;3.57;;;9.00;99.90;;;;;;5042092;28;20218;-88
2022/04/30 05:11:55;;;;;;;6.27;3.60;;;9.00;99.90;;;;;;5042505;28;20190;-87
2022/04/30 05:14:20;;;;;;;5.13;3.57;;;9.00;99.90;;;;;;5042464;28;20197;-87
2022/04/30 05:16:47;;;;;;;5.63;3.53;;;9.00;99.90;;;;;;5041751;28;20225;-88
2022/04/30 05:19:12;;;;;;;4.93;4.07;;;9.00;99.90;;;;;;5041041;28;20226;-87
2022/04/30 05:21:38;;;;;;;3.87;2.87;;;9.00;99.90;;;;;;5042300;28;20222;-90
2022/04/30 05:24:04;;;;;;;3.43;2.67;;;9.20;99.90;;;;;;5042677;28;20208;-90
2022/04/30 05:26:32;;;;;;;3.97;3.57;;;9.70;99.90;;;;;;5001822;28;20280;-86
2022/04/30 05:28:58;;;;;;;4.43;4.03;;;9.90;99.90;;;;;;5042985;28;20240;-89
2022/04/30 05:31:24;;;;;;;3.90;2.80;;;9.90;99.90;;;;;;5041902;28;20213;-86
2022/04/30 05:33:50;;;;;;;7.67;2.53;;;9.90;99.90;;;;;;5042619;28;20725;-88
2022/04/30 05:36:16;;;;;;;3.27;2.97;;;9.90;99.90;;;;;;5009005;28;20213;-89
2022/04/30 05:38:42;;;;;;;8.77;3.63;;;10.00;99.90;;;;;;5025120;28;21138;-86
2022/04/30 05:41:07;;;;;;;6.37;4.30;;;10.10;99.90;;;;;;5025734;28;20251;-88
2022/04/30 05:43:33;;;;;;;4.00;3.60;;;10.00;99.90;;;;;;5025115;28;20241;-88
2022/04/30 05:45:59;;;;;;;3.10;2.33;;;10.00;99.90;;;;;;5042134;28;20271;-84
2022/04/30 05:48:24;;;;;;;7.17;3.57;;;10.10;99.90;;;;;;5026608;28;20297;-84
2022/04/30 05:50:51;;;;;;;5.37;2.97;;;10.10;99.90;;;;;;5043980;28;20198;-85
2022/04/30 05:53:17;;;;;;;3.57;3.27;;;10.20;99.90;;;;;;5043342;28;20218;-85
2022/04/30 05:55:43;;;;;;;6.20;4.20;;;10.10;99.90;;;;;;5044106;28;20585;-86
2022/04/30 05:58:08;;;;;;;4.07;3.10;;;10.10;99.90;;;;;;5025742;28;20224;-84
2022/04/30 06:00:34;;;;;;;4.73;3.57;;;10.00;99.90;;;;;;5041963;28;21112;-89
2022/04/30 06:03:00;;;;;;;5.80;3.27;;;10.00;99.90;;;;;;5025308;28;20200;-86
2022/04/30 06:05:26;;;;;;;4.30;3.07;;;10.00;99.90;;;;;;5041618;28;20260;-90
2022/04/30 06:07:53;;;;;;;6.30;4.07;;;10.10;99.90;;;;;;5040782;28;21087;-90
2022/04/30 06:10:19;;;;;;;3.93;3.20;;;10.00;99.90;;;;;;5023920;28;20283;-90
2022/04/30 06:12:45;;;;;;;3.90;2.73;;;10.10;99.90;;;;;;5040769;28;20670;-86
2022/04/30 06:15:11;;;;;;;4.57;3.67;;;10.20;99.90;;;;;;5040255;28;20222;-87
2022/04/30 06:17:37;;;;;;;6.27;3.60;;;10.20;99.90;;;;;;5025145;28;20186;-86
2022/04/30 06:20:02;;;;;;;14.30;3.80;;;10.10;99.90;;;;;;5042387;28;20229;-89
2022/04/30 06:22:28;;;;;;;2.17;1.97;;;10.10;99.90;;;;;;5043499;28;20226;-87
2022/04/30 06:24:54;;;;;;;3.37;2.60;;;10.00;99.90;;;;;;5040543;28;20214;-85
2022/04/30 06:27:20;;;;;;;3.67;2.37;;;10.00;99.90;;;;;;5041423;28;20251;-87
2022/04/30 06:29:46;;;;;;;4.07;2.93;;;10.00;99.90;;;;;;5042255;28;20197;-89
2022/04/30 06:32:12;;;;;;;4.63;2.23;;;9.90;99.90;;;;;;5027454;28;20218;-90
2022/04/30 06:34:39;;;;;;;3.83;2.53;;;9.90;99.90;;;;;;5011859;28;20668;-88
2022/04/30 06:37:04;;;;;;;6.93;2.40;;;9.90;99.90;;;;;;5027925;28;20240;-90
2022/04/30 06:39:31;;;;;;;3.10;2.77;;;9.90;99.90;;;;;;5044522;28;20256;-91
2022/04/30 06:41:56;;;;;;;3.87;1.90;;;9.80;99.90;;;;;;5044086;28;20220;-89
2022/04/30 06:44:22;;;;;;;3.53;2.77;;;9.80;99.90;;;;;;5028104;28;20627;-88
2022/04/30 06:46:48;;;;;;;3.20;2.90;;;9.90;99.90;;;;;;5047061;28;20724;-89
2022/04/30 06:49:13;;;;;;;4.10;2.63;;;10.00;99.90;;;;;;5047579;28;20304;-86
2022/04/30 06:51:39;;;;;;;4.43;3.23;;;10.20;99.90;;;;;;5029977;28;20313;-88
2022/04/30 06:59:41;;;;;;;4.40;3.03;;;10.30;99.90;;;;;;5049210;28;20230;-88
2022/04/30 07:02:13;;;;;;;9.70;3.87;;;10.30;99.90;;;;;;5049139;28;20247;-86
2022/04/30 07:04:42;;;;;;;5.13;3.50;;;10.30;99.90;;;;;;5048571;28;20244;-90
2022/04/30 07:07:09;;;;;;;3.60;3.17;;;10.40;99.90;;;;;;5047358;28;20288;-85
2022/04/30 07:09:36;;;;;;;4.77;2.97;;;10.40;99.90;;;;;;5030572;28;20313;-86
2022/04/30 07:12:07;;;;;;;4.00;3.67;;;10.20;99.90;;;;;;5046738;28;20201;-85
2022/04/30 07:14:37;;;;;;;4.40;3.10;;;10.10;99.90;;;;;;5029754;28;20190;-85
2022/04/30 07:17:08;;;;;;;4.13;2.53;;;9.90;99.90;;;;;;5031541;28;20240;-85
2022/04/30 07:19:34;;;;;;;9.97;3.60;;;10.10;99.90;;;;;;5047990;28;20222;-86
2022/04/30 07:22:01;;;;;;;5.10;3.33;;;10.20;99.90;;;;;;5029309;28;20218;-87
2022/04/30 07:24:27;;;;;;;4.90;3.90;;;10.30;99.90;;;;;;5030835;28;20875;-89
2022/04/30 07:26:53;;;;;;;5.93;3.20;;;10.40;99.90;;;;;;5046976;28;20178;-85
2022/04/30 07:29:19;;;;;;;5.40;3.77;;;10.40;99.90;;;;;;5048724;28;20189;-85
2022/04/30 07:31:45;;;;;;;5.23;3.50;;;10.50;99.90;;;;;;5046447;28;20221;-85
2022/04/30 07:34:11;;;;;;;7.17;3.90;;;10.50;99.90;;;;;;5045761;28;20226;-82
2022/04/30 07:36:38;;;;;;;5.80;3.77;;;10.30;99.90;;;;;;5046025;28;20552;-85
2022/04/30 07:39:04;;;;;;;4.27;3.13;;;10.20;99.90;;;;;;5046826;28;20240;-87
2022/04/30 07:41:30;;;;;;;7.03;4.23;;;10.30;99.90;;;;;;5047635;28;20268;-87
2022/04/30 07:43:56;;;;;;;4.13;2.80;;;10.40;99.90;;;;;;5047863;28;20245;-92
2022/04/30 07:46:24;;;;;;;10.47;3.37;;;10.40;99.90;;;;;;5015067;28;20225;-86
2022/04/30 07:48:50;;;;;;;4.17;3.70;;;10.30;99.90;;;;;;5048207;28;20317;-89
2022/04/30 07:51:18;;;;;;;4.23;3.27;;;10.30;99.90;;;;;;5047940;28;20252;-89
2022/04/30 07:53:45;;;;;;;4.57;2.73;;;10.40;99.90;;;;;;5031616;28;20219;-88
2022/04/30 07:56:12;;;;;;;9.40;3.87;;;10.50;99.90;;;;;;5012628;28;20225;-89
2022/04/30 07:58:38;;;;;;;4.00;3.00;;;10.40;99.90;;;;;;5047547;28;20238;-88
2022/04/30 08:01:04;;;;;;;5.07;3.00;;;10.50;99.90;;;;;;5046311;28;20213;-89
2022/04/30 08:03:30;;;;;;;4.47;3.47;;;10.80;99.90;;;;;;5047589;28;20542;-89
2022/04/30 08:05:55;;;;;;;4.93;3.47;;;11.00;99.90;;;;;;5047179;28;20194;-91
2022/04/30 08:08:21;;;;;;;6.40;3.40;;;11.20;99.90;;;;;;5033428;28;20218;-90
2022/04/30 08:10:47;;;;;;;4.60;2.63;;;11.40;99.90;;;;;;5045952;28;20214;-88
2022/04/30 08:13:13;;;;;;;9.63;4.07;;;11.50;99.90;;;;;;5032951;28;20717;-87
2022/04/30 08:15:43;;;;;;;3.33;2.73;;;11.50;99.90;;;;;;5048020;28;20249;-86
2022/04/30 08:18:12;;;;;;;3.23;2.50;;;11.40;99.90;;;;;;5034141;28;20193;-90
2022/04/30 08:20:39;;;;;;;3.50;2.80;;;11.10;99.90;;;;;;5046866;28;20980;-88
2022/04/30 08:23:08;;;;;;;4.33;3.07;;;11.10;99.90;;;;;;5046382;28;20241;-89
2022/04/30 08:25:35;;;;;;;5.73;2.50;;;11.20;99.90;;;;;;5033826;28;20213;-88
2022/04/30 08:28:02;;;;;;;5.50;2.80;;;11.20;99.90;;;;;;5045992;28;20224;-89
2022/04/30 08:30:28;;;;;;;3.73;3.13;;;11.10;99.90;;;;;;5046121;28;20607;-87
2022/04/30 08:32:54;;;;;;;3.93;2.90;;;11.20;99.90;;;;;;5028422;28;20218;-91
2022/04/30 08:35:20;;;;;;;3.37;2.07;;;11.10;99.90;;;;;;5043199;28;20611;-88
2022/04/30 08:37:47;;;;;;;3.77;2.00;;;11.00;99.90;;;;;;5043502;28;20653;-88
2022/04/30 08:40:13;;;;;;;5.17;2.27;;;10.90;99.90;;;;;;5028200;28;21033;-89
2022/04/30 08:42:39;;;;;;;3.83;2.90;;;10.80;99.90;;;;;;5045103;28;20222;-88
2022/04/30 08:45:08;;;;;;;4.87;2.60;;;11.00;99.90;;;;;;5046763;28;20207;-88
2022/04/30 08:47:42;;;;;;;3.93;2.80;;;11.10;99.90;;;;;;5046137;28;20202;-89
2022/04/30 08:50:10;;;;;;;4.13;2.83;;;11.10;99.90;;;;;;5029216;28;20291;-87
2022/04/30 08:52:36;;;;;;;4.00;2.53;;;11.30;99.90;;;;;;5046027;28;20218;-88
2022/04/30 08:55:03;;;;;;;2.30;2.10;;;11.20;99.90;;;;;;5044617;28;20214;-87
2022/04/30 08:57:28;;;;;;;5.60;2.37;;;11.10;99.90;;;;;;5028404;28;20214;-86
2022/04/30 08:59:55;;;;;;;2.00;1.80;;;11.20;99.90;;;;;;5045248;28;21046;-90
2022/04/30 09:02:21;;;;;;;2.97;2.33;;;11.50;99.90;;;;;;5047644;28;20315;-89
2022/04/30 09:04:48;;;;;;;2.67;2.10;;;11.50;99.90;;;;;;5028840;28;20316;-89
2022/04/30 09:07:22;;;;;;;2.60;1.93;;;11.50;99.90;;;;;;5046613;28;20217;-93
2022/04/30 09:09:59;;;;;;;2.90;2.20;;;11.50;99.90;;;;;;5028342;28;20271;-91
2022/04/30 09:12:26;;;;;;;2.63;2.13;;;11.50;99.90;;;;;;5045646;28;20259;-92
2022/04/30 09:14:52;;;;;;;3.17;2.33;;;11.60;99.90;;;;;;5045235;28;20236;-89
2022/04/30 09:17:18;;;;;;;2.77;2.57;;;11.60;99.90;;;;;;5026674;28;21087;-90
2022/04/30 09:20:01;;;;;;;3.43;1.77;;;11.30;99.90;;;;;;5028117;28;20226;-89
2022/04/30 09:22:29;;;;;;;3.90;2.17;;;11.40;99.90;;;;;;5029199;28;20562;-88
2022/04/30 09:24:54;;;;;;;3.10;2.87;;;11.70;99.90;;;;;;5044701;28;20233;-90
2022/04/30 09:27:20;;;;;;;4.83;1.80;;;11.70;99.90;;;;;;5028944;28;20678;-88
2022/04/30 09:29:46;;;;;;;2.53;2.33;;;11.70;99.90;;;;;;5012747;28;20189;-89
2022/04/30 09:32:19;;;;;;;2.50;2.30;;;11.80;99.90;;;;;;5028976;28;21106;-86
2022/04/30 09:37:42;;;;;;;3.47;2.30;;;11.80;99.90;;;;;;5043647;28;20237;-83
2022/04/30 09:40:14;;;;;;;3.47;1.90;;;11.80;99.90;;;;;;5043140;28;20317;-86
2022/04/30 09:42:42;;;;;;;5.20;2.73;;;11.90;99.90;;;;;;5043141;28;20232;-86
2022/04/30 09:45:08;;;;;;;4.00;2.80;;;11.90;99.90;;;;;;5060225;28;20197;-85
2022/04/30 09:47:35;;;;;;;5.20;2.77;;;11.70;99.90;;;;;;5043591;28;20185;-84
2022/04/30 09:55:32;;;;;;;2.33;2.07;;;11.80;99.90;;;;;;5044081;28;20221;-86
2022/04/30 09:58:03;;;;;;;1.90;1.70;;;11.90;99.90;;;;;;5027996;28;20226;-85
2022/04/30 10:00:32;;;;;;;2.10;1.77;;;12.20;99.90;;;;;;5043362;28;20221;-85
2022/04/30 10:03:01;;;;;;;3.20;2.03;;;12.40;99.90;;;;;;5027714;28;20193;-86
2022/04/30 10:05:30;;;;;;;2.17;1.60;;;12.30;99.90;;;;;;5045502;28;20194;-92
2022/04/30 10:07:56;;;;;;;1.80;1.50;;;12.40;99.90;;;;;;5044371;28;20222;-87
2022/04/30 10:10:28;;;;;;;3.33;1.87;;;12.40;99.90;;;;;;5045544;28;20233;-84
2022/04/30 10:13:17;;;;;;;2.90;1.97;;;12.30;99.90;;;;;;5045363;28;20213;-91
2022/04/30 10:15:51;;;;;;;3.97;1.33;;;12.30;99.90;;;;;;5044317;28;20218;-89
2022/04/30 10:18:18;;;;;;;2.13;1.93;;;12.30;99.90;;;;;;5044364;28;20228;-90
2022/04/30 10:20:52;;;;;;;2.37;2.13;;;12.10;99.90;;;;;;5029588;28;20226;-90
2022/04/30 10:23:18;;;;;;;5.97;2.03;;;11.90;99.90;;;;;;5052555;28;20305;-89
2022/04/30 10:25:48;;;;;;;2.93;1.93;;;11.70;99.90;;;;;;5050006;28;20308;-89
2022/04/30 10:28:18;;;;;;;2.93;2.13;;;11.80;99.90;;;;;;5048859;28;20315;-89
2022/04/30 10:30:45;;;;;;;3.57;2.90;;;11.80;99.90;;;;;;5049187;28;20674;-89
2022/04/30 10:33:11;;;;;;;4.10;2.00;;;12.20;99.90;;;;;;5033157;28;20232;-89
2022/04/30 10:35:39;;;;;;;5.93;2.13;;;12.40;99.90;;;;;;5034111;28;20182;-88
2022/04/30 10:38:08;;;;;;;2.27;2.00;;;12.40;99.90;;;;;;5065092;28;20229;-90
2022/04/30 10:40:47;;;;;;;3.90;2.37;;;12.60;99.90;;;;;;5049285;28;20240;-90
2022/04/30 10:43:16;;;;;;;2.83;2.20;;;12.70;99.90;;;;;;5050441;28;20217;-90
2022/04/30 10:45:42;;;;;;;5.47;2.73;;;12.70;99.90;;;;;;5048638;28;20225;-90
2022/04/30 10:48:09;;;;;;;2.80;2.53;;;12.50;99.90;;;;;;5047234;28;20928;-89
2022/04/30 10:50:35;;;;;;;3.17;2.37;;;12.60;99.90;;;;;;5033529;28;20204;-88
2022/04/30 10:53:01;;;;;;;3.37;2.40;;;12.60;99.90;;;;;;5047264;28;21108;-89
2022/04/30 10:55:27;;;;;;;3.20;2.53;;;12.30;99.90;;;;;;5048820;28;20268;-90
2022/04/30 10:57:53;;;;;;;4.13;2.73;;;12.50;99.90;;;;;;5030080;28;20297;-88
2022/04/30 11:00:22;;;;;;;3.77;2.70;;;12.40;99.90;;;;;;5045786;28;20234;-90
2022/04/30 11:02:49;;;;;;;2.90;2.50;;;12.50;99.90;;;;;;5045596;28;20185;-90
2022/04/30 11:05:19;;;;;;;3.17;2.20;;;12.20;99.90;;;;;;5045057;28;20230;-88
2022/04/30 11:07:46;;;;;;;2.23;2.03;;;12.40;99.90;;;;;;5028411;28;20220;-88
2022/04/30 11:10:12;;;;;;;5.97;2.60;;;12.60;99.90;;;;;;5047116;28;20217;-89
2022/04/30 11:12:38;;;;;;;2.70;1.90;;;12.80;99.90;;;;;;5029783;28;20218;-86
2022/04/30 11:15:04;;;;;;;4.80;2.37;;;12.90;99.90;;;;;;5048768;28;20252;-87
2022/04/30 11:17:30;;;;;;;5.17;2.00;;;12.50;99.90;;;;;;5047238;28;20208;-89
2022/04/30 11:19:56;;;;;;;2.50;2.13;;;12.20;99.90;;;;;;5046142;28;20225;-88
2022/04/30 11:22:23;;;;;;;5.47;3.00;;;12.30;99.90;;;;;;5047425;28;20671;-90
2022/04/30 11:24:49;;;;;;;3.40;2.57;;;12.40;99.90;;;;;;5048168;28;21092;-90
2022/04/30 11:27:15;;;;;;;4.50;2.73;;;12.20;99.90;;;;;;5045381;28;20221;-87
2022/04/30 11:29:51;;;;;;;4.50;2.30;;;12.30;99.90;;;;;;5029096;28;20182;-89
2022/04/30 11:32:27;;;;;;;4.87;2.70;;;12.50;99.90;;;;;;5028847;28;20213;-87
2022/04/30 11:34:54;;;;;;;9.07;3.07;;;12.80;99.90;;;;;;5045677;28;20206;-85
2022/04/30 11:37:20;;;;;;;4.33;2.73;;;13.10;99.90;;;;;;5047438;28;20316;-86
2022/04/30 11:39:46;;;;;;;3.80;2.40;;;13.20;99.90;;;;;;5047965;28;20222;-88
2022/04/30 11:42:12;;;;;;;3.17;2.20;;;13.20;99.90;;;;;;5045728;28;20537;-84
2022/04/30 11:44:38;;;;;;;3.97;2.03;;;12.80;99.90;;;;;;5047488;28;20189;-91
2022/04/30 11:47:07;;;;;;;2.90;2.17;;;12.60;99.90;;;;;;5047203;28;20244;-85
2022/04/30 11:49:33;;;;;;;3.17;2.63;;;12.80;99.90;;;;;;5045909;28;20225;-86
2022/04/30 11:52:00;;;;;;;4.00;3.00;;;13.00;99.90;;;;;;5029585;28;20300;-89
2022/04/30 11:54:28;;;;;;;2.27;1.90;;;13.40;99.90;;;;;;5045943;28;20245;-91
2022/04/30 11:56:56;;;;;;;4.63;3.27;;;13.40;99.90;;;;;;5062367;28;20658;-85
2022/04/30 11:59:30;;;;;;;5.77;2.63;;;13.50;99.90;;;;;;5030870;28;20214;-88
2022/04/30 12:02:10;;;;;;;3.37;2.40;;;13.70;99.90;;;;;;5045452;28;20222;-88
2022/04/30 12:04:41;;;;;;;2.90;2.63;;;13.90;99.90;;;;;;5042592;28;20213;-87
2022/04/30 12:07:08;;;;;;;1.77;1.60;;;14.10;99.90;;;;;;5043902;28;20784;-86
2022/04/30 12:09:37;;;;;;;2.80;2.07;;;14.50;99.90;;;;;;5043772;28;20221;-89
2022/04/30 12:12:21;;;;;;;4.10;2.53;;;14.60;99.90;;;;;;5043513;28;20216;-90
2022/04/30 12:14:53;;;;;;;3.33;3.03;;;14.70;99.90;;;;;;5028763;28;20643;-86
2022/04/30 12:17:26;;;;;;;2.27;2.07;;;14.40;99.90;;;;;;5044464;28;20228;-88
2022/04/30 12:25:33;;;;;;;2.40;2.17;;;13.80;99.90;;;;;;5047206;28;20263;-89
2022/04/30 12:28:02;;;;;;;2.87;2.47;;;13.70;99.90;;;;;;5045498;28;20213;-89
2022/04/30 12:30:28;;;;;;;3.77;2.33;;;13.80;99.90;;;;;;5045597;28;20221;-89
2022/04/30 12:32:59;;;;;;;3.50;1.73;;;13.60;99.90;;;;;;5046406;28;20216;-88
2022/04/30 12:35:35;;;;;;;4.20;2.37;;;13.30;99.90;;;;;;5046484;28;20190;-88
2022/04/30 12:38:05;;;;;;;2.93;1.97;;;13.50;99.90;;;;;;5046737;28;21023;-89
2022/04/30 12:40:33;;;;;;;2.27;1.97;;;13.60;99.90;;;;;;5045125;28;20784;-84
2022/04/30 12:42:59;;;;;;;3.20;2.70;;;13.90;99.90;;;;;;5046290;28;20218;-89
2022/04/30 12:45:25;;;;;;;3.37;2.30;;;14.40;99.90;;;;;;5028463;28;20217;-89
2022/04/30 12:47:52;;;;;;;5.73;2.43;;;14.90;99.90;;;;;;5028731;28;20185;-84
2022/04/30 12:50:19;;;;;;;3.77;2.07;;;15.10;99.90;;;;;;5029698;28;20785;-89
2022/04/30 12:52:45;;;;;;;2.50;1.83;;;15.50;99.90;;;;;;5029092;28;20232;-90
2022/04/30 12:55:12;;;;;;;2.40;2.10;;;15.90;99.90;;;;;;5045792;28;20332;-89
2022/04/30 12:57:40;;;;;;;4.07;2.53;;;15.80;99.90;;;;;;5028784;28;20797;-89
2022/04/30 13:00:10;;;;;;;2.87;2.50;;;15.30;99.90;;;;;;5044334;28;20198;-89
2022/04/30 13:02:38;;;;;;;5.97;3.03;;;15.00;99.90;;;;;;5047350;28;20273;-89
2022/04/30 13:05:07;;;;;;;2.50;2.10;;;15.00;99.90;;;;;;5044564;28;20214;-86
2022/04/30 13:07:33;;;;;;;4.73;2.83;;;15.20;99.90;;;;;;5045122;28;20279;-85
2022/04/30 13:15:28;;;;;;;2.70;2.27;;;15.80;99.90;;;;;;5044541;28;20214;-86
2022/04/30 13:17:56;;;;;;;2.90;2.57;;;15.80;99.90;;;;;;5027846;28;20194;-86
2022/04/30 13:20:22;;;;;;;2.13;1.80;;;15.40;99.90;;;;;;5045754;28;20243;-85
2022/04/30 13:22:49;;;;;;;3.27;2.40;;;15.20;99.90;;;;;;5028012;28;20621;-85
2022/04/30 13:25:16;;;;;;;4.10;1.43;;;15.40;99.90;;;;;;5027960;28;20679;-91
2022/04/30 13:27:42;;;;;;;2.67;2.37;;;14.50;99.90;;;;;;5025706;28;20737;-86
2022/04/30 13:30:09;;;;;;;5.57;2.43;;;14.60;99.90;;;;;;5044027;28;20190;-87
2022/04/30 13:32:34;;;;;;;4.83;2.27;;;14.40;99.90;;;;;;5046328;28;20198;-89
2022/04/30 13:35:00;;;;;;;4.80;2.77;;;14.70;99.90;;;;;;5027417;28;20266;-85
2022/04/30 13:37:26;;;;;;;2.50;2.07;;;14.80;99.90;;;;;;5043340;28;20903;-89